createdAt,value
2019-03-23T00:00:35.852Z,38.63
2019-03-23T00:03:07.395Z,39.90
2019-03-23T00:05:38.704Z,39.83
2019-03-23T00:08:10.147Z,39.63
2019-03-23T00:10:42.009Z,38.00
2019-03-23T00:13:14.241Z,41.70
2019-03-23T00:15:50.008Z,43.10
2019-03-23T00:18:21.691Z,39.47
2019-03-23T00:20:53.241Z,39.27
2019-03-23T00:23:24.651Z,40.90
2019-03-23T00:25:56.536Z,39.30
2019-03-23T00:28:28.513Z,38.80
2019-03-23T00:31:00.075Z,38.87
2019-03-23T00:33:31.835Z,39.90
2019-03-23T00:36:03.429Z,40.87
2019-03-23T00:38:38.467Z,40.70
2019-03-23T00:41:09.962Z,40.70
2019-03-23T00:43:41.515Z,39.03
2019-03-23T00:46:14.755Z,40.57
2019-03-23T00:48:46.141Z,36.20
2019-03-23T00:51:18.004Z,41.73
2019-03-23T00:53:49.395Z,40.50
2019-03-23T00:56:20.957Z,39.67
2019-03-23T00:58:52.311Z,36.80
2019-03-23T01:01:23.833Z,37.47
2019-03-23T01:03:55.427Z,43.63
2019-03-23T01:06:26.948Z,38.70
2019-03-23T01:08:58.927Z,37.07
2019-03-23T01:11:30.647Z,35.33
2019-03-23T01:14:02.105Z,36.93
2019-03-23T01:16:33.741Z,39.47
2019-03-23T01:19:06.067Z,38.67
2019-03-23T01:21:38.102Z,37.83
2019-03-23T01:24:09.558Z,40.27
2019-03-23T01:26:41.191Z,38.93
2019-03-23T01:29:13.332Z,39.60
2019-03-23T01:31:45.065Z,40.87
2019-03-23T01:34:16.655Z,42.30
2019-03-23T01:37:02.259Z,41.17
2019-03-23T01:39:24.614Z,40.30
2019-03-23T01:41:55.870Z,36.87
2019-03-23T01:44:28.152Z,39.10
2019-03-23T01:46:59.803Z,41.58
2019-03-23T01:49:31.132Z,40.00
2019-03-23T01:52:02.382Z,37.75
2019-03-23T01:54:33.679Z,38.20
2019-03-23T01:57:04.865Z,36.63
2019-03-23T01:59:36.104Z,37.88
2019-03-23T02:02:07.381Z,38.10
2019-03-23T02:04:38.634Z,39.23
2019-03-23T02:07:14.093Z,37.90
2019-03-23T02:09:42.886Z,37.70
2019-03-23T02:12:14.182Z,36.80
2019-03-23T02:14:45.389Z,37.28
2019-03-23T02:17:16.676Z,37.05
2019-03-23T02:19:47.995Z,34.40
2019-03-23T02:22:19.337Z,36.65
2019-03-23T02:24:50.613Z,36.73
2019-03-23T02:27:22.025Z,36.30
2019-03-23T02:29:53.380Z,35.35
2019-03-23T02:32:24.722Z,34.08
2019-03-23T02:34:56.380Z,34.95
2019-03-23T02:37:28.327Z,36.45
2019-03-23T02:39:59.782Z,37.30
2019-03-23T02:42:31.101Z,37.13
2019-03-23T02:45:02.559Z,37.03
2019-03-23T02:47:33.937Z,34.63
2019-03-23T02:50:05.561Z,35.28
2019-03-23T02:52:36.992Z,35.45
2019-03-23T02:55:09.889Z,35.60
2019-03-23T02:57:41.330Z,35.73
2019-03-23T03:00:12.692Z,34.88
2019-03-23T03:02:44.627Z,33.92
2019-03-23T03:05:15.991Z,35.00
2019-03-23T03:07:47.356Z,32.25
2019-03-23T03:10:37.907Z,32.08
2019-03-23T03:13:09.627Z,32.65
2019-03-23T03:15:41.226Z,32.73
2019-03-23T03:18:12.955Z,34.40
2019-03-23T03:20:44.346Z,31.68
2019-03-23T03:23:15.552Z,28.42
2019-03-23T03:25:46.897Z,26.05
2019-03-23T03:28:18.109Z,23.22
2019-03-23T03:30:49.370Z,22.10
2019-03-23T03:33:20.653Z,16.52
2019-03-23T03:35:51.936Z,13.88
2019-03-23T03:38:23.517Z,13.50
2019-03-23T03:40:54.751Z,13.00
2019-03-23T03:43:26.062Z,13.55
2019-03-23T03:45:57.350Z,13.68
2019-03-23T03:48:28.609Z,14.47
2019-03-23T03:50:59.954Z,15.53
2019-03-23T03:53:31.276Z,15.88
2019-03-23T03:56:02.533Z,15.60
2019-03-23T03:58:33.766Z,17.32
2019-03-23T04:01:05.613Z,18.50
2019-03-23T04:03:36.943Z,20.27
2019-03-23T04:06:08.816Z,20.20
2019-03-23T04:08:40.150Z,22.35
2019-03-23T04:11:11.404Z,22.65
2019-03-23T04:13:42.923Z,25.10
2019-03-23T04:16:14.137Z,25.70
2019-03-23T04:18:45.310Z,23.80
2019-03-23T04:21:16.634Z,24.50
2019-03-23T04:23:47.999Z,26.40
2019-03-23T04:26:19.197Z,27.10
2019-03-23T04:28:50.501Z,28.07
2019-03-23T04:31:21.731Z,27.87
2019-03-23T04:33:53.004Z,31.30
2019-03-23T04:36:24.431Z,31.17
2019-03-23T04:38:55.697Z,33.80
2019-03-23T04:41:26.908Z,35.90
2019-03-23T04:43:58.516Z,37.17
2019-03-23T04:46:29.755Z,38.57
2019-03-23T04:49:01.052Z,41.20
2019-03-23T04:51:32.518Z,42.57
2019-03-23T04:54:04.383Z,42.90
2019-03-23T04:56:35.746Z,43.53
2019-03-23T04:59:08.225Z,44.50
2019-03-23T05:01:39.537Z,49.23
2019-03-23T05:04:10.858Z,50.07
2019-03-23T05:06:42.661Z,54.80
2019-03-23T05:09:14.078Z,60.83
2019-03-23T05:11:45.282Z,64.53
2019-03-23T05:14:16.577Z,63.47
2019-03-23T05:16:47.813Z,79.35
2019-03-23T05:19:19.106Z,80.10
2019-03-23T05:21:50.355Z,74.43
2019-03-23T05:24:21.690Z,71.60
2019-03-23T05:26:52.915Z,71.93
2019-03-23T05:29:24.301Z,75.60
2019-03-23T05:31:55.618Z,76.73
2019-03-23T05:34:26.876Z,73.77
2019-03-23T05:36:58.128Z,75.30
2019-03-23T05:39:29.364Z,75.53
2019-03-23T05:42:00.651Z,76.57
2019-03-23T05:44:32.010Z,66.70
2019-03-23T05:47:03.285Z,70.70
2019-03-23T05:49:34.621Z,68.67
2019-03-23T05:52:06.216Z,66.60
2019-03-23T05:54:37.442Z,62.57
2019-03-23T05:57:08.733Z,59.33
2019-03-23T05:59:40.004Z,62.87
2019-03-23T06:02:11.350Z,57.37
2019-03-23T06:04:42.574Z,59.83
2019-03-23T06:07:13.824Z,53.80
2019-03-23T06:09:45.054Z,51.67
2019-03-23T06:12:17.703Z,48.43
2019-03-23T06:14:49.129Z,46.37
2019-03-23T06:17:20.531Z,45.17
2019-03-23T06:19:51.749Z,46.20
2019-03-23T06:22:22.977Z,45.00
2019-03-23T06:24:54.256Z,49.10
2019-03-23T06:27:28.408Z,45.20
2019-03-23T06:29:59.746Z,46.70
2019-03-23T06:32:31.044Z,48.70
2019-03-23T06:35:02.397Z,46.03
2019-03-23T06:37:35.530Z,48.37
2019-03-23T06:40:13.033Z,48.93
2019-03-23T06:42:44.345Z,45.80
2019-03-23T06:45:18.603Z,46.00
2019-03-23T06:47:49.975Z,49.17
2019-03-23T06:50:21.285Z,50.00
2019-03-23T06:52:52.685Z,49.90
2019-03-23T06:55:24.001Z,48.43
2019-03-23T06:57:55.560Z,50.20
2019-03-23T07:00:26.830Z,48.47
2019-03-23T07:02:58.111Z,50.47
2019-03-23T07:05:29.981Z,49.93
2019-03-23T07:08:01.389Z,50.77
2019-03-23T07:10:32.616Z,52.40
2019-03-23T07:13:03.949Z,52.53
2019-03-23T07:15:35.537Z,51.60
2019-03-23T07:18:06.920Z,49.33
2019-03-23T07:20:38.285Z,47.47
2019-03-23T07:23:09.762Z,47.40
2019-03-23T07:25:41.075Z,48.90
2019-03-23T07:28:12.454Z,52.20
2019-03-23T07:30:43.828Z,44.67
2019-03-23T07:33:15.052Z,51.93
2019-03-23T07:35:46.405Z,48.30
2019-03-23T07:38:17.749Z,48.00
2019-03-23T07:40:49.610Z,52.43
2019-03-23T07:43:20.876Z,49.57
2019-03-23T07:45:52.220Z,48.63
2019-03-23T07:48:23.591Z,47.10
2019-03-23T07:50:54.843Z,50.10
2019-03-23T07:53:26.391Z,47.93
2019-03-23T07:55:58.045Z,46.60
2019-03-23T07:58:29.298Z,46.90
2019-03-23T08:01:00.610Z,46.17
2019-03-23T08:03:31.854Z,45.03
2019-03-23T08:06:03.347Z,42.10
2019-03-23T08:08:34.694Z,43.27
2019-03-23T08:11:14.272Z,42.43
2019-03-23T08:13:49.898Z,43.80
2019-03-23T08:16:21.339Z,43.43
2019-03-23T08:18:53.033Z,43.20
2019-03-23T08:21:24.910Z,44.37
2019-03-23T08:23:56.429Z,44.27
2019-03-23T08:26:28.035Z,44.10
2019-03-23T08:28:59.628Z,44.03
2019-03-23T08:31:30.894Z,42.80
2019-03-23T08:34:02.902Z,44.60
2019-03-23T08:36:34.414Z,45.80
2019-03-23T08:39:07.261Z,44.53
2019-03-23T08:41:38.709Z,42.07
2019-03-23T08:44:10.063Z,44.40
2019-03-23T08:46:43.237Z,45.87
2019-03-23T08:49:14.619Z,45.30
2019-03-23T08:51:46.064Z,44.40
2019-03-23T08:54:19.020Z,43.43
2019-03-23T08:56:50.881Z,43.57
2019-03-23T08:59:22.880Z,44.27
2019-03-23T09:01:54.418Z,43.73
2019-03-23T09:04:25.770Z,41.80
2019-03-23T09:07:00.083Z,46.40
2019-03-23T09:09:31.771Z,45.30
2019-03-23T09:12:03.290Z,45.40
2019-03-23T09:14:44.084Z,44.07
2019-03-23T09:17:16.034Z,44.60
2019-03-23T09:19:50.927Z,44.77
2019-03-23T09:22:24.810Z,42.40
2019-03-23T09:24:57.889Z,43.43
2019-03-23T09:27:29.227Z,44.73
2019-03-23T09:30:00.949Z,44.63
2019-03-23T09:32:32.225Z,44.10
2019-03-23T09:35:05.155Z,46.13
2019-03-23T09:37:38.065Z,46.83
2019-03-23T09:40:11.466Z,47.90
2019-03-23T09:42:44.763Z,50.00
2019-03-23T09:45:16.297Z,49.10
2019-03-23T09:47:47.739Z,46.57
2019-03-23T09:50:19.302Z,46.97
2019-03-23T09:52:50.714Z,50.87
2019-03-23T09:55:22.266Z,45.40
2019-03-23T09:57:53.809Z,48.90
2019-03-23T10:00:25.014Z,44.30
2019-03-23T10:02:56.224Z,50.10
2019-03-23T10:05:27.553Z,47.33
2019-03-23T10:07:59.928Z,48.03
2019-03-23T10:10:31.655Z,47.10
2019-03-23T10:13:03.036Z,45.37
2019-03-23T10:15:34.533Z,45.20
2019-03-23T10:18:24.014Z,43.60
2019-03-23T10:21:02.502Z,43.13
2019-03-23T10:23:42.348Z,38.77
2019-03-23T10:26:15.659Z,38.63
2019-03-23T10:28:49.155Z,41.20
2019-03-23T10:31:29.262Z,40.10
2019-03-23T10:34:02.922Z,44.30
2019-03-23T10:36:36.439Z,43.20
2019-03-23T10:39:10.913Z,46.80
2019-03-23T10:41:56.819Z,45.17
2019-03-23T10:44:28.257Z,45.10
2019-03-23T10:46:59.826Z,43.43
2019-03-23T10:49:31.188Z,44.03
2019-03-23T10:52:02.821Z,43.47
2019-03-23T10:54:36.576Z,41.40
2019-03-23T10:57:07.943Z,40.40
2019-03-23T10:59:41.166Z,42.17
2019-03-23T11:02:14.136Z,41.27
2019-03-23T11:04:45.403Z,41.20
2019-03-23T11:07:18.789Z,43.17
2019-03-23T11:09:50.379Z,42.50
2019-03-23T11:12:21.626Z,44.03
2019-03-23T11:14:53.632Z,44.87
2019-03-23T11:17:27.106Z,43.87
2019-03-23T11:20:03.120Z,43.93
2019-03-23T11:22:34.480Z,44.77
2019-03-23T11:25:12.846Z,42.73
2019-03-23T11:27:48.419Z,42.53
2019-03-23T11:30:22.738Z,43.73
2019-03-23T11:32:54.030Z,40.90
2019-03-23T11:35:27.505Z,40.77
2019-03-23T11:38:02.174Z,40.83
2019-03-23T11:40:35.176Z,40.23
2019-03-23T11:43:08.342Z,37.00
2019-03-23T11:45:42.138Z,39.47
2019-03-23T11:48:18.821Z,38.87
2019-03-23T11:50:53.359Z,37.67
2019-03-23T11:53:32.437Z,37.33
2019-03-23T11:56:08.744Z,37.17
2019-03-23T11:58:42.561Z,37.60
2019-03-23T12:01:16.510Z,39.10
2019-03-23T12:03:53.118Z,36.73
2019-03-23T12:06:27.056Z,36.37
2019-03-23T12:08:58.945Z,39.37
2019-03-23T12:11:31.630Z,38.90
2019-03-23T12:14:06.487Z,36.37
2019-03-23T12:16:42.252Z,37.80
2019-03-23T12:19:22.969Z,37.63
2019-03-23T12:22:21.043Z,36.63
2019-03-23T12:24:58.666Z,34.37
2019-03-23T12:27:53.793Z,36.53
2019-03-23T12:30:47.299Z,36.43
2019-03-23T12:33:27.154Z,38.53
2019-03-23T12:36:05.787Z,36.00
2019-03-23T12:38:50.547Z,35.37
2019-03-23T12:41:44.509Z,33.00
2019-03-23T12:44:16.597Z,33.80
2019-03-23T12:46:48.721Z,33.93
2019-03-23T12:49:23.325Z,32.90
2019-03-23T12:52:03.772Z,31.63
2019-03-23T12:54:32.946Z,34.13
2019-03-23T12:57:04.938Z,32.47
2019-03-23T12:59:44.711Z,32.83
2019-03-23T13:02:21.482Z,34.00
2019-03-23T13:04:53.103Z,31.00
2019-03-23T13:07:29.114Z,30.93
2019-03-23T13:10:02.414Z,30.60
2019-03-23T13:12:37.114Z,30.33
2019-03-23T13:15:12.466Z,32.40
2019-03-23T13:17:44.086Z,33.20
2019-03-23T13:20:15.967Z,31.50
2019-03-23T13:22:47.572Z,30.60
2019-03-23T13:25:29.741Z,30.77
2019-03-23T13:28:05.231Z,30.43
2019-03-23T13:30:36.899Z,31.47
2019-03-23T13:33:11.270Z,34.60
2019-03-23T13:35:47.623Z,30.33
2019-03-23T13:38:20.987Z,30.30
2019-03-23T13:40:52.608Z,30.80
2019-03-23T13:43:31.835Z,31.40
2019-03-23T13:46:06.270Z,30.00
2019-03-23T13:48:39.351Z,29.50
2019-03-23T13:51:13.022Z,30.63
2019-03-23T13:53:45.732Z,30.40
2019-03-23T13:56:17.403Z,29.70
2019-03-23T13:58:48.881Z,28.80
2019-03-23T14:01:22.068Z,30.60
2019-03-23T14:03:53.574Z,31.47
2019-03-23T14:06:27.403Z,29.30
2019-03-23T14:08:59.008Z,29.80
2019-03-23T14:11:31.844Z,30.20
2019-03-23T14:14:05.338Z,29.60
2019-03-23T14:16:38.693Z,32.87
2019-03-23T14:19:13.323Z,29.17
2019-03-23T14:21:49.940Z,29.10
2019-03-23T14:24:23.126Z,30.73
2019-03-23T14:26:57.592Z,30.10
2019-03-23T14:29:29.212Z,32.10
2019-03-23T14:32:04.864Z,32.17
2019-03-23T14:34:36.314Z,30.23
2019-03-23T14:37:08.273Z,32.30
2019-03-23T14:39:42.805Z,33.60
2019-03-23T14:42:17.516Z,33.33
2019-03-23T14:44:55.013Z,34.60
2019-03-23T14:47:26.448Z,32.17
2019-03-23T14:50:04.376Z,34.70
2019-03-23T14:52:38.143Z,32.47
2019-03-23T14:55:12.327Z,35.40
2019-03-23T14:57:52.563Z,30.73
2019-03-23T15:00:35.639Z,31.77
2019-03-23T15:03:08.684Z,34.23
2019-03-23T15:05:40.528Z,33.13
2019-03-23T15:08:17.637Z,29.60
2019-03-23T15:10:51.210Z,31.97
2019-03-23T15:13:28.684Z,32.43
2019-03-23T15:16:06.483Z,32.33
2019-03-23T15:18:39.135Z,31.40
2019-03-23T15:21:10.702Z,35.27
2019-03-23T15:23:44.350Z,36.50
2019-03-23T15:26:15.902Z,32.97
2019-03-23T15:29:06.116Z,32.90
2019-03-23T15:31:32.038Z,31.87
2019-03-23T15:34:04.799Z,32.53
2019-03-23T15:36:36.406Z,34.00
2019-03-23T15:39:10.466Z,34.30
2019-03-23T15:41:41.874Z,32.20
2019-03-23T15:44:13.458Z,33.40
2019-03-23T15:46:53.001Z,33.80
2019-03-23T15:49:25.976Z,33.47
2019-03-23T15:51:59.346Z,35.30
2019-03-23T15:54:31.897Z,33.90
2019-03-23T15:57:03.174Z,35.17
2019-03-23T15:59:35.142Z,35.00
2019-03-23T16:02:07.405Z,36.00
2019-03-23T16:04:39.178Z,39.27
2019-03-23T16:07:10.746Z,36.37
2019-03-23T16:09:42.603Z,38.60
2019-03-23T16:12:16.414Z,36.67
2019-03-23T16:14:48.010Z,39.27
2019-03-23T16:17:19.725Z,37.90
2019-03-23T16:19:51.171Z,40.00
2019-03-23T16:22:25.939Z,37.40
2019-03-23T16:24:59.118Z,36.73
2019-03-23T16:27:36.102Z,37.43
2019-03-23T16:30:09.177Z,39.80
2019-03-23T16:32:40.812Z,40.53
2019-03-23T16:35:15.772Z,39.33
2019-03-23T16:37:47.391Z,40.47
2019-03-23T16:40:19.003Z,36.93
2019-03-23T16:42:52.286Z,39.37
2019-03-23T16:45:31.866Z,40.57
2019-03-23T16:48:06.139Z,41.03
2019-03-23T16:50:40.808Z,38.97
2019-03-23T16:53:14.598Z,39.53
2019-03-23T16:55:50.391Z,42.00
2019-03-23T16:58:22.300Z,41.87
2019-03-23T17:00:55.257Z,45.87
2019-03-23T17:03:33.843Z,43.50
2019-03-23T17:06:07.424Z,45.00
2019-03-23T17:08:38.729Z,47.40
2019-03-23T17:11:12.011Z,47.10
2019-03-23T17:13:43.636Z,48.37
2019-03-23T17:16:17.007Z,47.20
2019-03-23T17:18:48.559Z,48.77
2019-03-23T17:21:21.968Z,46.77
2019-03-23T17:23:55.763Z,46.50
2019-03-23T17:26:28.104Z,47.40
2019-03-23T17:29:05.883Z,45.63
2019-03-23T17:31:37.704Z,47.20
2019-03-23T17:34:13.551Z,44.20
2019-03-23T17:36:50.348Z,43.57
2019-03-23T17:39:24.387Z,42.97
2019-03-23T17:41:56.015Z,38.90
2019-03-23T17:44:31.600Z,36.53
2019-03-23T17:47:05.407Z,37.07
2019-03-23T17:49:46.950Z,36.57
2019-03-23T17:52:24.420Z,36.30
2019-03-23T17:54:56.146Z,36.20
2019-03-23T17:57:31.630Z,32.60
2019-03-23T18:00:12.442Z,33.00
2019-03-23T18:02:48.676Z,32.30
2019-03-23T18:05:22.976Z,31.63
2019-03-23T18:07:56.385Z,30.77
2019-03-23T18:10:28.346Z,31.70
2019-03-23T18:13:15.962Z,29.00
2019-03-23T18:15:39.187Z,30.50
2019-03-23T18:18:10.675Z,29.67
2019-03-23T18:20:42.334Z,30.43
2019-03-23T18:23:15.806Z,30.43
2019-03-23T18:25:48.710Z,30.80
2019-03-23T18:28:20.160Z,30.23
2019-03-23T18:30:51.720Z,28.07
2019-03-23T18:33:23.253Z,32.13
2019-03-23T18:35:54.698Z,28.70
2019-03-23T18:38:26.015Z,27.37
2019-03-23T18:40:57.525Z,26.77
2019-03-23T18:43:29.051Z,23.60
2019-03-23T18:46:00.328Z,24.20
2019-03-23T18:48:31.692Z,21.87
2019-03-23T18:51:05.688Z,23.47
2019-03-23T18:53:37.177Z,21.50
2019-03-23T18:56:08.730Z,20.77
2019-03-23T18:58:40.372Z,25.30
2019-03-23T19:01:13.903Z,22.27
2019-03-23T19:03:45.566Z,23.90
2019-03-23T19:06:17.385Z,23.97
2019-03-23T19:08:51.766Z,25.50
2019-03-23T19:11:23.701Z,24.70
2019-03-23T19:14:01.102Z,23.97
2019-03-23T19:16:35.629Z,26.20
2019-03-23T19:19:08.745Z,25.33
2019-03-23T19:21:44.668Z,24.83
2019-03-23T19:24:16.530Z,26.60
2019-03-23T19:26:48.201Z,27.00
2019-03-23T19:29:20.974Z,26.83
2019-03-23T19:31:52.313Z,26.57
2019-03-23T19:34:23.733Z,26.53
2019-03-23T19:36:56.138Z,25.13
2019-03-23T19:39:29.323Z,23.83
2019-03-23T19:42:01.011Z,22.60
2019-03-23T19:44:32.733Z,21.70
2019-03-23T19:47:05.369Z,21.93
2019-03-23T19:49:45.777Z,21.57
2019-03-23T19:52:25.623Z,21.17
2019-03-23T19:55:01.709Z,19.47
2019-03-23T19:57:36.483Z,16.70
2019-03-23T20:00:14.095Z,17.20
2019-03-23T20:02:45.693Z,16.23
2019-03-23T20:05:20.284Z,15.60
2019-03-23T20:07:53.682Z,14.73
2019-03-23T20:10:42.642Z,13.40
2019-03-23T20:13:14.481Z,12.60
2019-03-23T20:15:46.107Z,11.00
2019-03-23T20:18:32.442Z,11.17
2019-03-23T20:21:20.429Z,12.10
2019-03-23T20:23:54.389Z,10.73
2019-03-23T20:26:26.073Z,10.40
2019-03-23T20:29:09.745Z,11.20
2019-03-23T20:31:41.929Z,10.00
2019-03-23T20:34:21.128Z,10.20
2019-03-23T20:36:52.893Z,10.93
2019-03-23T20:39:24.719Z,11.20
2019-03-23T20:41:57.963Z,10.73
2019-03-23T20:44:32.589Z,11.07
2019-03-23T20:47:06.525Z,12.37
2019-03-23T20:49:38.689Z,11.80
2019-03-23T20:52:10.270Z,12.70
2019-03-23T20:54:41.966Z,11.63
2019-03-23T20:57:23.960Z,12.80
2019-03-23T20:59:52.591Z,11.70
2019-03-23T21:02:28.710Z,13.13
2019-03-23T21:05:02.419Z,11.03
2019-03-23T21:07:41.022Z,11.63
2019-03-23T21:10:15.195Z,10.63
2019-03-23T21:12:56.924Z,12.27
2019-03-23T21:15:33.363Z,10.83
2019-03-23T21:18:05.027Z,11.40
2019-03-23T21:20:41.308Z,14.07
2019-03-23T21:23:16.870Z,11.90
2019-03-23T21:26:00.313Z,11.53
2019-03-23T21:28:32.104Z,10.90
2019-03-23T21:31:11.402Z,10.50
2019-03-23T21:33:47.408Z,10.03
2019-03-23T21:36:22.148Z,9.90
2019-03-23T21:38:54.097Z,11.10
2019-03-23T21:41:54.918Z,10.30
2019-03-23T21:44:31.192Z,10.43
2019-03-23T21:47:02.649Z,10.43
2019-03-23T21:53:20.322Z,10.00
2019-03-23T21:55:51.663Z,10.50
2019-03-23T21:58:22.981Z,9.70
2019-03-23T22:00:57.473Z,9.97
2019-03-23T22:03:28.841Z,9.20
2019-03-23T22:06:01.814Z,10.40
2019-03-23T22:08:33.658Z,9.67
2019-03-23T22:11:05.164Z,10.30
2019-03-23T22:13:36.717Z,8.63
2019-03-23T22:16:08.002Z,9.43
2019-03-23T22:18:42.489Z,8.57
2019-03-23T22:21:15.467Z,8.70
2019-03-23T22:23:46.847Z,9.03
2019-03-23T22:26:18.316Z,8.20
2019-03-23T22:28:49.525Z,9.70
2019-03-23T22:31:20.770Z,8.90
2019-03-23T22:33:52.129Z,10.83
2019-03-23T22:36:23.518Z,9.00
2019-03-23T22:38:55.080Z,8.43
2019-03-23T22:41:26.318Z,7.43
2019-03-23T22:43:57.732Z,9.00
2019-03-23T22:46:29.083Z,7.23
2019-03-23T22:49:00.376Z,8.37
2019-03-23T22:51:31.910Z,6.90
2019-03-23T22:54:03.626Z,7.73
2019-03-23T22:56:34.894Z,6.57
2019-03-23T22:59:06.392Z,8.00
2019-03-23T23:01:40.097Z,7.63
2019-03-23T23:04:11.305Z,7.80
2019-03-23T23:06:42.710Z,6.87
2019-03-23T23:09:14.124Z,9.10
2019-03-23T23:11:45.318Z,8.10
2019-03-23T23:14:16.567Z,7.60
2019-03-23T23:16:47.807Z,8.00
2019-03-23T23:19:21.307Z,9.90
2019-03-23T23:21:52.685Z,7.97
2019-03-23T23:24:23.880Z,8.20
2019-03-23T23:26:55.149Z,6.40
2019-03-23T23:29:26.437Z,7.90
2019-03-23T23:31:57.582Z,9.60
2019-03-23T23:34:28.768Z,9.43
2019-03-23T23:37:01.802Z,8.43
2019-03-23T23:39:32.992Z,8.50
2019-03-23T23:42:04.700Z,7.77
2019-03-23T23:44:36.950Z,9.00
2019-03-23T23:47:08.316Z,7.90
2019-03-23T23:49:39.458Z,7.43
2019-03-23T23:52:10.676Z,8.13
2019-03-23T23:54:41.933Z,9.40
2019-03-23T23:57:15.699Z,10.80
2019-03-23T23:59:47.274Z,8.93
